createdAt,value
2022-12-01T00:01:31.596Z,22.01
2022-12-01T00:04:01.228Z,22.01
2022-12-01T00:06:30.456Z,22.01
2022-12-01T00:09:20.038Z,22.00
2022-12-01T00:11:49.762Z,22.00
2022-12-01T00:14:20.556Z,21.99
2022-12-01T00:16:52.505Z,21.97
2022-12-01T00:19:24.051Z,21.96
2022-12-01T00:21:53.527Z,21.94
2022-12-01T00:24:23.561Z,21.94
2022-12-01T00:26:53.147Z,21.92
2022-12-01T00:29:23.791Z,21.91
2022-12-01T00:31:55.758Z,21.91
2022-12-01T00:34:26.289Z,21.91
2022-12-01T00:36:55.669Z,21.89
2022-12-01T00:39:23.577Z,21.90
2022-12-01T00:41:54.667Z,21.89
2022-12-01T00:44:28.877Z,21.88
2022-12-01T00:46:56.792Z,21.87
2022-12-01T00:49:26.050Z,21.87
2022-12-01T00:51:55.155Z,21.85
2022-12-01T00:54:25.448Z,21.86
2022-12-01T00:56:53.354Z,21.85
2022-12-01T00:59:21.401Z,21.84
2022-12-01T01:01:50.814Z,21.84
2022-12-01T01:04:18.762Z,21.86
2022-12-01T01:06:48.026Z,21.86
2022-12-01T01:09:16.661Z,21.88
2022-12-01T01:11:44.614Z,21.86
2022-12-01T01:14:12.504Z,21.86
2022-12-01T01:16:40.451Z,21.87
2022-12-01T01:19:13.487Z,21.87
2022-12-01T01:21:41.447Z,21.86
2022-12-01T01:24:09.579Z,21.85
2022-12-01T01:26:39.047Z,21.84
2022-12-01T01:29:07.762Z,21.82
2022-12-01T01:31:35.666Z,21.81
2022-12-01T01:34:04.913Z,21.81
2022-12-01T01:36:35.786Z,21.79
2022-12-01T01:39:05.073Z,21.79
2022-12-01T01:41:34.371Z,21.79
2022-12-01T01:44:04.027Z,21.78
2022-12-01T01:46:34.209Z,21.78
2022-12-01T01:49:07.025Z,21.77
2022-12-01T01:51:41.712Z,21.77
2022-12-01T01:54:10.842Z,21.74
2022-12-01T01:56:41.185Z,21.73
2022-12-01T01:59:08.854Z,21.72
2022-12-01T02:01:37.673Z,21.73
2022-12-01T02:04:06.647Z,21.73
2022-12-01T02:06:35.548Z,21.71
2022-12-01T02:09:05.733Z,21.73
2022-12-01T02:11:51.814Z,21.75
2022-12-01T02:14:33.765Z,21.74
2022-12-01T02:17:03.364Z,21.75
2022-12-01T02:19:47.662Z,21.76
2022-12-01T02:22:21.727Z,21.75
2022-12-01T02:25:10.432Z,21.76
2022-12-01T02:27:46.491Z,21.76
2022-12-01T02:30:14.412Z,21.73
2022-12-01T02:32:46.997Z,21.73
2022-12-01T02:35:15.883Z,21.73
2022-12-01T02:37:46.259Z,21.72
2022-12-01T02:40:16.355Z,21.73
2022-12-01T02:42:52.353Z,21.71
2022-12-01T02:45:22.171Z,21.71
2022-12-01T02:47:51.293Z,21.71
2022-12-01T02:50:18.944Z,21.70
2022-12-01T02:52:46.566Z,21.70
2022-12-01T02:55:14.304Z,21.70
2022-12-01T02:57:41.986Z,21.69
2022-12-01T03:00:13.858Z,21.68
2022-12-01T03:02:43.631Z,21.68
2022-12-01T03:05:14.444Z,21.68
2022-12-01T03:07:47.194Z,21.68
2022-12-01T03:10:18.927Z,21.69
2022-12-01T03:12:49.383Z,21.69
2022-12-01T03:15:18.893Z,21.68
2022-12-01T03:17:47.614Z,21.68
2022-12-01T03:20:17.623Z,21.69
2022-12-01T03:22:45.664Z,21.70
2022-12-01T03:25:13.721Z,21.69
2022-12-01T03:28:00.571Z,21.70
2022-12-01T03:30:29.850Z,21.72
2022-12-01T03:32:58.249Z,21.72
2022-12-01T03:35:28.223Z,21.72
2022-12-01T03:37:57.291Z,21.73
2022-12-01T03:43:23.498Z,21.70
2022-12-01T03:45:52.321Z,21.70
2022-12-01T03:48:20.067Z,21.69
2022-12-01T03:50:50.210Z,21.69
2022-12-01T03:53:19.422Z,21.68
2022-12-01T03:55:47.955Z,21.68
2022-12-01T03:58:16.324Z,21.67
2022-12-01T04:00:45.138Z,21.66
2022-12-01T04:03:17.531Z,21.66
2022-12-01T04:05:45.152Z,21.65
2022-12-01T04:08:14.168Z,21.65
2022-12-01T04:10:41.867Z,21.65
2022-12-01T04:13:16.080Z,21.64
2022-12-01T04:15:44.153Z,21.65
2022-12-01T04:18:11.930Z,21.64
2022-12-01T04:20:39.591Z,21.64
2022-12-01T04:23:07.276Z,21.64
2022-12-01T04:25:36.302Z,21.64
2022-12-01T04:28:03.955Z,21.63
2022-12-01T04:30:31.634Z,21.64
2022-12-01T04:32:59.322Z,21.65
2022-12-01T04:35:27.046Z,21.66
2022-12-01T04:37:54.651Z,21.66
2022-12-01T04:40:22.332Z,21.66
2022-12-01T04:42:51.343Z,21.66
2022-12-01T04:45:19.001Z,21.66
2022-12-01T04:47:46.717Z,21.66
2022-12-01T04:50:14.470Z,21.66
2022-12-01T04:52:42.151Z,21.64
2022-12-01T04:55:10.215Z,21.63
2022-12-01T04:57:39.550Z,21.63
2022-12-01T05:00:13.356Z,21.63
2022-12-01T05:02:43.336Z,21.61
2022-12-01T05:05:11.024Z,21.61
2022-12-01T05:07:38.762Z,21.61
2022-12-01T05:10:06.963Z,21.60
2022-12-01T05:12:34.677Z,21.60
2022-12-01T05:15:02.365Z,21.59
2022-12-01T05:17:36.908Z,21.59
2022-12-01T05:20:22.370Z,21.58
2022-12-01T05:23:06.416Z,21.59
2022-12-01T05:25:34.729Z,21.59
2022-12-01T05:28:02.474Z,21.57
2022-12-01T05:30:30.098Z,21.58
2022-12-01T05:32:59.125Z,21.57
2022-12-01T05:35:27.984Z,21.56
2022-12-01T05:37:55.696Z,21.56
2022-12-01T05:40:23.408Z,21.58
2022-12-01T05:42:51.089Z,21.59
2022-12-01T05:45:18.744Z,21.60
2022-12-01T05:47:46.409Z,21.61
2022-12-01T05:50:15.499Z,21.60
2022-12-01T05:52:43.156Z,21.60
2022-12-01T05:55:10.883Z,21.61
2022-12-01T05:57:38.507Z,21.62
2022-12-01T06:00:08.089Z,21.61
2022-12-01T06:02:35.758Z,21.60
2022-12-01T06:05:03.427Z,21.60
2022-12-01T06:07:34.624Z,21.61
2022-12-01T06:10:02.449Z,21.61
2022-12-01T06:12:30.132Z,21.62
2022-12-01T06:14:57.746Z,21.60
2022-12-01T06:17:25.466Z,21.61
2022-12-01T06:19:53.176Z,21.62
2022-12-01T06:22:20.875Z,21.61
2022-12-01T06:24:49.951Z,21.61
2022-12-01T06:27:17.603Z,21.61
2022-12-01T06:29:46.751Z,21.61
2022-12-01T06:32:14.454Z,21.62
2022-12-01T06:34:43.642Z,21.62
2022-12-01T06:37:11.279Z,21.63
2022-12-01T06:39:38.902Z,21.63
2022-12-01T06:42:08.063Z,21.64
2022-12-01T06:44:35.759Z,21.63
2022-12-01T06:47:03.442Z,21.64
2022-12-01T06:49:31.149Z,21.66
2022-12-01T06:52:01.063Z,21.66
2022-12-01T06:54:28.885Z,21.68
2022-12-01T06:56:56.594Z,21.68
2022-12-01T06:59:26.144Z,21.70
2022-12-01T07:01:54.201Z,21.71
2022-12-01T07:04:21.943Z,21.72
2022-12-01T07:06:49.611Z,21.72
2022-12-01T07:09:17.343Z,21.75
2022-12-01T07:11:44.998Z,21.76
2022-12-01T07:14:14.041Z,21.76
2022-12-01T07:16:43.279Z,21.76
2022-12-01T07:19:12.364Z,21.77
2022-12-01T07:21:40.038Z,21.77
2022-12-01T07:24:08.259Z,21.78
2022-12-01T07:26:45.524Z,21.79
2022-12-01T07:29:13.290Z,21.79
2022-12-01T07:31:40.981Z,21.79
2022-12-01T07:34:11.407Z,21.80
2022-12-01T07:36:39.104Z,21.80
2022-12-01T07:39:07.563Z,21.81
2022-12-01T07:41:35.506Z,21.82
2022-12-01T07:44:03.131Z,21.83
2022-12-01T07:46:30.913Z,21.83
2022-12-01T07:48:59.634Z,21.84
2022-12-01T07:51:28.674Z,21.86
2022-12-01T07:53:56.367Z,21.86
2022-12-01T07:56:24.117Z,21.86
2022-12-01T07:58:51.783Z,21.86
2022-12-01T08:01:21.490Z,21.88
2022-12-01T08:03:49.439Z,21.87
2022-12-01T08:06:17.371Z,21.88
2022-12-01T08:08:46.453Z,21.88
2022-12-01T08:11:14.680Z,21.87
2022-12-01T08:13:42.369Z,21.87
2022-12-01T08:16:10.510Z,21.87
2022-12-01T08:18:38.305Z,21.88
2022-12-01T08:21:06.042Z,21.89
2022-12-01T08:23:33.722Z,21.90
2022-12-01T08:26:03.114Z,21.90
2022-12-01T08:28:30.727Z,21.91
2022-12-01T08:30:58.519Z,21.91
2022-12-01T08:33:26.352Z,21.91
2022-12-01T08:35:54.054Z,21.91
2022-12-01T08:38:21.773Z,21.91
2022-12-01T08:40:49.419Z,21.92
2022-12-01T08:43:49.510Z,21.92
2022-12-01T08:46:06.248Z,21.92
2022-12-01T08:48:33.919Z,21.93
2022-12-01T08:51:05.474Z,21.93
2022-12-01T08:53:33.258Z,21.94
2022-12-01T08:56:01.822Z,21.92
2022-12-01T08:58:30.997Z,21.92
2022-12-01T09:01:04.701Z,21.94
2022-12-01T09:03:32.471Z,21.92
2022-12-01T09:06:06.183Z,21.90
2022-12-01T09:08:34.995Z,21.90
2022-12-01T09:11:03.170Z,21.90
2022-12-01T09:13:33.478Z,21.90
2022-12-01T09:16:01.705Z,21.89
2022-12-01T09:18:29.703Z,21.89
2022-12-01T09:20:57.381Z,21.89
2022-12-01T09:23:25.366Z,21.88
2022-12-01T09:25:53.319Z,21.88
2022-12-01T09:28:21.373Z,21.88
2022-12-01T09:30:50.483Z,21.89
2022-12-01T09:33:18.783Z,21.88
2022-12-01T09:35:46.644Z,21.87
2022-12-01T09:38:14.949Z,21.90
2022-12-01T09:40:42.963Z,21.91
2022-12-01T09:43:14.099Z,21.92
2022-12-01T09:45:44.273Z,21.94
2022-12-01T09:48:15.745Z,21.94
2022-12-01T09:50:43.474Z,21.95
2022-12-01T09:53:14.226Z,21.96
2022-12-01T09:55:41.961Z,21.95
2022-12-01T09:58:15.735Z,21.94
2022-12-01T10:00:43.781Z,21.94
2022-12-01T10:03:17.704Z,21.93
2022-12-01T10:06:10.250Z,21.92
2022-12-01T10:08:36.881Z,21.90
2022-12-01T10:11:07.201Z,21.91
2022-12-01T10:13:35.642Z,21.91
2022-12-01T10:16:05.908Z,21.91
2022-12-01T10:18:39.052Z,21.89
2022-12-01T10:21:08.707Z,21.91
2022-12-01T10:23:41.626Z,21.90
2022-12-01T10:26:14.110Z,21.92
2022-12-01T10:28:54.712Z,21.91
2022-12-01T10:31:22.855Z,21.91
2022-12-01T10:33:56.822Z,21.92
2022-12-01T10:36:24.496Z,21.92
2022-12-01T10:38:52.844Z,21.93
2022-12-01T10:41:20.689Z,21.95
2022-12-01T10:43:50.659Z,21.95
2022-12-01T10:46:21.114Z,22.00
2022-12-01T10:48:57.367Z,21.99
2022-12-01T10:51:24.989Z,21.96
2022-12-01T10:53:56.617Z,21.97
2022-12-01T10:56:24.252Z,21.92
2022-12-01T10:58:53.198Z,21.90
2022-12-01T11:01:21.638Z,21.90
2022-12-01T11:03:54.494Z,21.88
2022-12-01T11:06:25.041Z,21.88
2022-12-01T11:08:54.214Z,21.86
2022-12-01T11:11:26.117Z,21.85
2022-12-01T11:13:54.508Z,21.86
2022-12-01T11:16:38.882Z,21.84
2022-12-01T11:19:11.327Z,21.83
2022-12-01T11:21:45.437Z,21.85
2022-12-01T11:24:17.803Z,21.87
2022-12-01T11:26:45.423Z,21.89
2022-12-01T11:29:22.788Z,21.91
2022-12-01T11:31:50.986Z,21.92
2022-12-01T11:34:21.154Z,21.93
2022-12-01T11:36:51.323Z,21.94
2022-12-01T11:39:23.173Z,21.96
2022-12-01T11:41:51.283Z,21.95
2022-12-01T11:44:49.557Z,21.98
2022-12-01T11:47:23.084Z,21.97
2022-12-01T11:49:59.275Z,21.98
2022-12-01T11:52:30.192Z,21.99
2022-12-01T11:54:59.851Z,21.98
2022-12-01T11:57:35.353Z,21.98
2022-12-01T12:00:10.000Z,21.99
2022-12-01T12:02:39.599Z,21.98
2022-12-01T12:05:22.886Z,21.99
2022-12-01T12:07:54.545Z,22.00
2022-12-01T12:10:30.115Z,21.99
2022-12-01T12:13:15.475Z,22.00
2022-12-01T12:18:26.821Z,22.01
2022-12-01T12:20:59.143Z,22.02
2022-12-01T12:23:31.884Z,22.03
2022-12-01T12:26:02.910Z,22.03
2022-12-01T12:28:36.152Z,22.03
2022-12-01T12:31:06.877Z,22.03
2022-12-01T12:33:40.334Z,22.05
2022-12-01T12:36:10.855Z,22.06
2022-12-01T12:38:45.819Z,22.07
2022-12-01T12:41:18.772Z,22.07
2022-12-01T12:43:49.213Z,22.07
2022-12-01T12:46:19.875Z,22.08
2022-12-01T12:49:18.691Z,22.08
2022-12-01T12:51:46.733Z,22.08
2022-12-01T12:54:19.276Z,22.09
2022-12-01T12:56:48.502Z,22.08
2022-12-01T12:59:17.696Z,22.08
2022-12-01T13:01:47.223Z,22.08
2022-12-01T13:04:16.962Z,22.09
2022-12-01T13:06:45.710Z,22.08
2022-12-01T13:09:15.044Z,22.09
2022-12-01T13:11:46.016Z,22.08
2022-12-01T13:14:16.640Z,22.07
2022-12-01T13:16:45.639Z,22.08
2022-12-01T13:19:14.129Z,22.09
2022-12-01T13:21:42.730Z,22.09
2022-12-01T13:24:11.793Z,22.08
2022-12-01T13:26:39.918Z,22.09
2022-12-01T13:29:27.666Z,22.10
2022-12-01T13:31:55.868Z,22.11
2022-12-01T13:34:25.716Z,22.12
2022-12-01T13:36:54.574Z,22.13
2022-12-01T13:39:22.719Z,22.13
2022-12-01T13:42:04.510Z,22.13
2022-12-01T13:44:35.104Z,22.14
2022-12-01T13:47:04.906Z,22.14
2022-12-01T13:49:33.833Z,22.15
2022-12-01T13:52:20.860Z,22.15
2022-12-01T13:55:00.709Z,22.16
2022-12-01T13:57:28.936Z,22.19
2022-12-01T14:00:06.798Z,22.19
2022-12-01T14:02:35.131Z,22.20
2022-12-01T14:05:30.423Z,22.20
2022-12-01T14:07:58.170Z,22.22
2022-12-01T14:10:30.598Z,22.23
2022-12-01T14:12:59.575Z,22.24
2022-12-01T14:15:41.098Z,22.26
2022-12-01T14:18:19.498Z,22.27
2022-12-01T14:20:48.855Z,22.28
2022-12-01T14:23:18.138Z,22.29
2022-12-01T14:25:58.032Z,22.31
2022-12-01T14:28:40.595Z,22.32
2022-12-01T14:31:10.804Z,22.33
2022-12-01T14:33:45.983Z,22.34
2022-12-01T14:36:18.972Z,22.34
2022-12-01T14:38:46.765Z,22.35
2022-12-01T14:41:22.336Z,22.35
2022-12-01T14:44:07.169Z,22.35
2022-12-01T14:46:51.663Z,22.36
2022-12-01T14:49:21.495Z,22.37
2022-12-01T14:51:50.418Z,22.38
2022-12-01T14:54:19.224Z,22.38
2022-12-01T14:56:47.962Z,22.39
2022-12-01T14:59:16.269Z,22.39
2022-12-01T15:01:46.114Z,22.41
2022-12-01T15:04:13.907Z,22.40
2022-12-01T15:06:42.818Z,22.40
2022-12-01T15:12:01.003Z,22.42
2022-12-01T15:14:32.516Z,22.42
2022-12-01T15:17:03.393Z,22.42
2022-12-01T15:19:31.667Z,22.42
2022-12-01T15:22:00.365Z,22.43
2022-12-01T15:24:28.439Z,22.44
2022-12-01T15:27:03.285Z,22.44
2022-12-01T15:29:31.733Z,22.43
2022-12-01T15:32:02.278Z,22.43
2022-12-01T15:34:31.545Z,22.43
2022-12-01T15:37:01.462Z,22.43
2022-12-01T15:39:31.852Z,22.43
2022-12-01T15:42:00.221Z,22.42
2022-12-01T15:44:28.729Z,22.42
2022-12-01T15:46:57.941Z,22.43
2022-12-01T15:49:29.573Z,22.42
2022-12-01T15:52:05.283Z,22.40
2022-12-01T15:54:32.949Z,22.41
2022-12-01T15:57:01.460Z,22.42
2022-12-01T15:59:30.864Z,22.41
2022-12-01T16:02:01.041Z,22.41
2022-12-01T16:04:32.282Z,22.41
2022-12-01T16:07:01.588Z,22.40
2022-12-01T16:09:30.296Z,22.39
2022-12-01T16:12:05.158Z,22.40
2022-12-01T16:14:32.981Z,22.39
2022-12-01T16:17:01.451Z,22.39
2022-12-01T16:19:32.073Z,22.39
2022-12-01T16:22:05.357Z,22.39
2022-12-01T16:24:35.218Z,22.38
2022-12-01T16:27:04.211Z,22.38
2022-12-01T16:29:33.785Z,22.38
2022-12-01T16:32:20.308Z,22.38
2022-12-01T16:34:51.019Z,22.37
2022-12-01T16:37:19.387Z,22.36
2022-12-01T16:39:47.094Z,22.35
2022-12-01T16:42:15.914Z,22.34
2022-12-01T16:44:44.725Z,22.35
2022-12-01T16:47:16.918Z,22.34
2022-12-01T16:49:45.774Z,22.33
2022-12-01T16:52:42.905Z,22.32
2022-12-01T16:55:03.288Z,22.33
2022-12-01T16:57:31.719Z,22.31
2022-12-01T16:59:59.457Z,22.32
2022-12-01T17:02:27.989Z,22.31
2022-12-01T17:04:55.731Z,22.31
2022-12-01T17:07:25.579Z,22.31
2022-12-01T17:09:53.223Z,22.30
2022-12-01T17:12:25.991Z,22.31
2022-12-01T17:14:53.746Z,22.29
2022-12-01T17:17:22.222Z,22.28
2022-12-01T17:19:49.870Z,22.28
2022-12-01T17:22:18.311Z,22.28
2022-12-01T17:24:47.549Z,22.28
2022-12-01T17:27:16.143Z,22.28
2022-12-01T17:29:46.400Z,22.27
2022-12-01T17:32:15.988Z,22.27
2022-12-01T17:34:46.371Z,22.26
2022-12-01T17:37:20.698Z,22.25
2022-12-01T17:39:50.316Z,22.25
2022-12-01T17:42:19.946Z,22.25
2022-12-01T17:45:03.196Z,22.24
2022-12-01T17:47:32.224Z,22.24
2022-12-01T17:49:59.898Z,22.24
2022-12-01T17:52:28.705Z,22.23
2022-12-01T17:54:58.084Z,22.23
2022-12-01T17:57:26.997Z,22.23
2022-12-01T17:59:55.384Z,22.23
2022-12-01T18:02:24.380Z,22.23
2022-12-01T18:04:53.151Z,22.22
2022-12-01T18:07:21.124Z,22.22
2022-12-01T18:09:49.468Z,22.21
2022-12-01T18:12:18.512Z,22.21
2022-12-01T18:14:47.207Z,22.21
2022-12-01T18:17:15.139Z,22.21
2022-12-01T18:19:44.460Z,22.20
2022-12-01T18:22:12.181Z,22.20
2022-12-01T18:24:40.623Z,22.20
2022-12-01T18:27:08.258Z,22.20
2022-12-01T18:29:38.055Z,22.19
2022-12-01T18:32:05.687Z,22.19
2022-12-01T18:34:34.786Z,22.19
2022-12-01T18:37:03.253Z,22.19
2022-12-01T18:39:31.742Z,22.17
2022-12-01T18:41:59.413Z,22.17
2022-12-01T18:44:27.874Z,22.16
2022-12-01T18:46:59.059Z,22.16
2022-12-01T18:49:28.103Z,22.17
2022-12-01T18:51:55.833Z,22.16
2022-12-01T18:54:28.015Z,22.15
2022-12-01T18:56:58.947Z,22.15
2022-12-01T18:59:29.419Z,22.14
2022-12-01T19:01:58.500Z,22.14
2022-12-01T19:04:26.962Z,22.14
2022-12-01T19:06:55.019Z,22.14
2022-12-01T19:09:23.565Z,22.14
2022-12-01T19:11:58.779Z,22.15
2022-12-01T19:14:29.112Z,22.14
2022-12-01T19:16:58.147Z,22.16
2022-12-01T19:19:27.145Z,22.16
2022-12-01T19:21:55.960Z,22.16
2022-12-01T19:24:24.476Z,22.17
2022-12-01T19:26:52.358Z,22.16
2022-12-01T19:29:20.816Z,22.17
2022-12-01T19:31:48.605Z,22.19
2022-12-01T19:34:21.055Z,22.19
2022-12-01T19:36:49.855Z,22.19
2022-12-01T19:39:20.107Z,22.18
2022-12-01T19:41:47.739Z,22.16
2022-12-01T19:44:16.182Z,22.19
2022-12-01T19:46:43.841Z,22.19
2022-12-01T19:49:16.190Z,22.17
2022-12-01T19:51:45.220Z,22.17
2022-12-01T19:54:14.818Z,22.17
2022-12-01T19:56:42.590Z,22.17
2022-12-01T19:59:12.374Z,22.17
2022-12-01T20:01:40.098Z,22.17
2022-12-01T20:04:08.704Z,22.17
2022-12-01T20:06:36.724Z,22.16
2022-12-01T20:09:07.009Z,22.16
2022-12-01T20:11:35.413Z,22.16
2022-12-01T20:14:04.135Z,22.17
2022-12-01T20:16:32.200Z,22.19
2022-12-01T20:19:00.864Z,22.20
2022-12-01T20:21:30.081Z,22.21
2022-12-01T20:23:58.786Z,22.22
2022-12-01T20:26:30.809Z,22.23
2022-12-01T20:28:59.755Z,22.25
2022-12-01T20:31:32.225Z,22.23
2022-12-01T20:34:03.615Z,22.25
2022-12-01T20:36:32.122Z,22.26
2022-12-01T20:38:59.756Z,22.26
2022-12-01T20:41:30.100Z,22.26
2022-12-01T20:44:00.148Z,22.26
2022-12-01T20:46:32.300Z,22.26
2022-12-01T20:49:00.003Z,22.28
2022-12-01T20:51:28.879Z,22.28
2022-12-01T20:54:26.400Z,22.28
2022-12-01T20:56:46.335Z,22.28
2022-12-01T20:59:14.055Z,22.29
2022-12-01T21:01:42.513Z,22.29
2022-12-01T21:04:10.129Z,22.28
2022-12-01T21:06:40.180Z,22.28
2022-12-01T21:09:09.889Z,22.29
2022-12-01T21:12:00.371Z,22.28
2022-12-01T21:14:30.654Z,22.30
2022-12-01T21:34:39.220Z,22.30
2022-12-01T21:37:10.159Z,22.32
2022-12-01T21:39:37.836Z,22.32
2022-12-01T21:42:10.927Z,22.32
2022-12-01T21:44:39.441Z,22.31
2022-12-01T21:57:45.336Z,22.26
2022-12-01T22:00:25.009Z,22.25
2022-12-01T22:06:30.436Z,22.23
2022-12-01T22:08:59.258Z,22.23
2022-12-01T22:11:27.729Z,22.21
2022-12-01T22:14:00.701Z,22.20
2022-12-01T22:20:39.323Z,22.17
2022-12-01T22:23:10.131Z,22.16
2022-12-01T22:25:39.263Z,22.15
2022-12-01T22:28:09.362Z,22.15
2022-12-01T22:30:38.405Z,22.14
2022-12-01T22:36:39.174Z,22.13
2022-12-01T22:39:07.551Z,22.13
2022-12-01T22:41:35.956Z,22.12
2022-12-01T22:44:03.597Z,22.12
2022-12-01T22:46:34.349Z,22.13
2022-12-01T22:49:03.161Z,22.12
2022-12-01T22:51:32.628Z,22.13
2022-12-01T22:54:01.616Z,22.12
2022-12-01T22:56:33.526Z,22.12
2022-12-01T22:59:01.351Z,22.11
2022-12-01T23:41:56.298Z,22.02
2022-12-01T23:44:24.938Z,22.01
